Time;durP1;ratioP1;P1;durP2;ratioP2;P2;SDS_P1;SDS_P2;PMS_P1;PMS_P2;Temp;Humidity;BMP_temperature;BMP_pressure;BME280_temperature;BME280_humidity;BME280_pressure;Samples;Min_cycle;Max_cycle;Signal;HPM_P1;HPM_P2
2024/04/16 00:02:15;;;;;;;11.82;10.88;;;;;;;;;;5354425;26;20448;-96
2024/04/16 00:04:45;;;;;;;16.60;15.25;;;;;;;;;;5354198;26;20445;-94
2024/04/16 00:07:11;;;;;;;14.95;13.63;;;;;;;;;;5373365;26;20036;-96
2024/04/16 00:09:37;;;;;;;8.90;8.10;;;;;;;;;;5389058;26;20024;-96
2024/04/16 00:12:03;;;;;;;13.35;12.18;;;;;;;;;;5388956;26;20007;-95
2024/04/16 00:14:35;;;;;;;11.75;10.75;;;;;;;;;;5388757;26;19999;-96
2024/04/16 00:17:01;;;;;;;12.75;11.55;;;;;;;;;;5388870;26;20007;-93
2024/04/16 00:19:27;;;;;;;13.20;12.07;;;;;;;;;;5389194;26;20007;-96
2024/04/16 00:21:53;;;;;;;13.43;12.07;;;;;;;;;;5389073;26;20178;-96
2024/04/16 00:24:23;;;;;;;15.25;13.75;;;;;;;;;;5406206;26;20002;-96
2024/04/16 00:26:50;;;;;;;17.33;15.90;;;;;;;;;;5389187;26;19995;-96
2024/04/16 00:29:20;;;;;;;19.02;17.10;;;;;;;;;;5358549;26;20337;-95
2024/04/16 00:31:46;;;;;;;17.98;16.30;;;;;;;;;;5353580;26;20011;-94
2024/04/16 00:34:22;;;;;;;;;;;;;;;;;;;;;
2024/04/16 00:36:49;;;;;;;10.70;9.65;;;;;;;;;;5419891;26;20428;-93
2024/04/16 00:39:15;;;;;;;17.98;16.13;;;;;;;;;;5382480;26;20012;-93
2024/04/16 00:41:41;;;;;;;17.65;15.85;;;;;;;;;;5382681;26;20039;-94
2024/04/16 00:44:15;;;;;;;17.23;15.60;;;;;;;;;;5378652;26;20000;-96
2024/04/16 00:46:44;;;;;;;18.08;14.18;;;;;;;;;;5353480;26;20095;-95
2024/04/16 00:49:10;;;;;;;16.15;14.65;;;;;;;;;;5377534;26;20006;-96
2024/04/16 00:51:40;;;;;;;15.18;13.70;;;;;;;;;;5388265;26;19999;-93
2024/04/16 00:54:09;;;;;;;11.18;10.18;;;;;;;;;;5387940;26;19999;-96
2024/04/16 00:56:39;;;;;;;9.15;8.25;;;;;;;;;;5388573;26;19996;-94
2024/04/16 00:59:05;;;;;;;10.18;9.30;;;;;;;;;;5388474;26;19996;-94
2024/04/16 01:01:32;;;;;;;7.00;5.97;;;;;;;;;;5388086;26;19999;-96
2024/04/16 01:03:58;;;;;;;14.32;13.13;;;;;;;;;;5388274;26;20003;-95
2024/04/16 01:06:25;;;;;;;13.77;12.43;;;;;;;;;;5388345;26;19995;-94
2024/04/16 01:08:51;;;;;;;12.93;11.65;;;;;;;;;;5388084;26;20530;-94
2024/04/16 01:11:27;;;;;;;15.15;13.85;;;;;;;;;;5388261;26;20072;-93
2024/04/16 01:13:54;;;;;;;11.63;10.40;;;;;;;;;;5417683;26;20007;-93
2024/04/16 01:16:21;;;;;;;7.25;6.20;;;;;;;;;;5388323;26;19996;-95
2024/04/16 01:18:47;;;;;;;6.72;6.13;;;;;;;;;;5388246;26;20076;-95
2024/04/16 01:21:13;;;;;;;12.85;11.77;;;;;;;;;;5388162;26;20023;-95
2024/04/16 01:23:39;;;;;;;10.82;10.05;;;;;;;;;;5388306;26;20401;-95
2024/04/16 01:26:06;;;;;;;12.50;11.40;;;;;;;;;;5388277;26;19991;-93
2024/04/16 01:28:32;;;;;;;5.85;4.78;;;;;;;;;;5388215;26;20016;-94
2024/04/16 01:30:58;;;;;;;15.48;14.02;;;;;;;;;;5387959;26;20002;-94
2024/04/16 01:33:24;;;;;;;7.97;6.22;;;;;;;;;;5371514;26;20052;-96
2024/04/16 01:35:53;;;;;;;10.52;9.60;;;;;;;;;;5353714;26;20024;-93
2024/04/16 01:38:19;;;;;;;10.98;10.07;;;;;;;;;;5382503;26;20007;-95
2024/04/16 01:40:45;;;;;;;8.10;6.53;;;;;;;;;;5409703;26;20003;-94
2024/04/16 01:43:11;;;;;;;5.65;3.58;;;;;;;;;;5391270;26;20428;-95
2024/04/16 01:45:38;;;;;;;9.00;8.07;;;;;;;;;;5387984;26;19992;-96
2024/04/16 01:48:22;;;;;;;10.02;6.35;;;;;;;;;;5387480;26;20024;-95
2024/04/16 01:51:19;;;;;;;9.70;8.75;;;;;;;;;;5377294;26;20061;-94
2024/04/16 01:53:48;;;;;;;11.07;10.13;;;;;;;;;;5248327;27;19994;-95
2024/04/16 01:56:17;;;;;;;10.38;8.35;;;;;;;;;;5248672;27;20010;-95
2024/04/16 01:59:02;;;;;;;8.02;7.32;;;;;;;;;;5248007;27;20184;-95
2024/04/16 02:01:31;;;;;;;15.43;10.60;;;;;;;;;;5248614;27;20002;-96
2024/04/16 02:04:00;;;;;;;11.25;10.40;;;;;;;;;;5301340;26;20006;-95
2024/04/16 02:06:28;;;;;;;13.13;9.20;;;;;;;;;;5416475;26;19996;-95
2024/04/16 02:08:58;;;;;;;12.15;11.10;;;;;;;;;;5386134;26;20003;-94
2024/04/16 02:11:25;;;;;;;9.90;8.95;;;;;;;;;;5381455;26;20008;-93
2024/04/16 02:13:53;;;;;;;12.70;10.35;;;;;;;;;;5352154;26;20004;-95
2024/04/16 02:16:19;;;;;;;11.35;10.43;;;;;;;;;;5381170;26;20429;-95
2024/04/16 02:18:45;;;;;;;12.90;11.88;;;;;;;;;;5381479;26;20441;-95
2024/04/16 02:21:11;;;;;;;12.77;11.65;;;;;;;;;;5413121;26;20004;-94
2024/04/16 02:23:38;;;;;;;12.60;11.77;;;;;;;;;;5387394;26;19995;-93
2024/04/16 02:26:04;;;;;;;14.57;13.55;;;;;;;;;;5386799;26;19999;-94
2024/04/16 02:28:30;;;;;;;13.40;12.43;;;;;;;;;;5386777;26;20331;-95
2024/04/16 02:30:56;;;;;;;11.68;10.25;;;;;;;;;;5386852;26;20027;-95
2024/04/16 02:33:22;;;;;;;11.55;10.60;;;;;;;;;;5387075;26;20006;-95
2024/04/16 02:35:48;;;;;;;11.15;9.63;;;;;;;;;;5386803;26;20076;-94
2024/04/16 02:38:15;;;;;;;10.02;8.82;;;;;;;;;;5386215;26;20000;-94
2024/04/16 02:40:42;;;;;;;8.88;8.10;;;;;;;;;;5367301;26;20004;-96
2024/04/16 02:43:08;;;;;;;7.10;6.50;;;;;;;;;;5354520;26;20003;-95
2024/04/16 02:45:34;;;;;;;9.57;7.25;;;;;;;;;;5355095;26;20000;-95
2024/04/16 02:48:01;;;;;;;7.18;6.15;;;;;;;;;;5355374;26;20007;-95
2024/04/16 02:50:27;;;;;;;7.97;7.25;;;;;;;;;;5355411;26;20000;-94
2024/04/16 02:52:53;;;;;;;12.90;7.63;;;;;;;;;;5355284;26;20012;-95
2024/04/16 02:55:21;;;;;;;8.20;6.00;;;;;;;;;;5355456;26;20016;-95
2024/04/16 02:57:47;;;;;;;5.97;3.00;;;;;;;;;;5355330;26;20000;-94
2024/04/16 03:00:14;;;;;;;7.88;6.72;;;;;;;;;;5355468;26;20007;-96
2024/04/16 03:02:40;;;;;;;8.32;7.00;;;;;;;;;;5383988;26;20003;-94
2024/04/16 03:05:06;;;;;;;7.57;4.90;;;;;;;;;;5390401;26;19992;-95
2024/04/16 03:07:32;;;;;;;10.27;9.48;;;;;;;;;;5379918;26;20004;-95
2024/04/16 03:09:58;;;;;;;10.13;9.23;;;;;;;;;;5354822;26;20483;-95
2024/04/16 03:12:24;;;;;;;6.68;6.18;;;;;;;;;;5355385;26;20379;-95
2024/04/16 03:14:54;;;;;;;8.70;7.03;;;;;;;;;;5355398;26;20000;-95
2024/04/16 03:17:20;;;;;;;14.35;13.23;;;;;;;;;;5390282;26;20367;-94
2024/04/16 03:19:46;;;;;;;11.52;10.43;;;;;;;;;;5397456;26;20049;-92
2024/04/16 03:22:12;;;;;;;13.50;12.65;;;;;;;;;;5395384;26;19996;-92
2024/04/16 03:24:38;;;;;;;13.52;12.57;;;;;;;;;;5367052;26;20016;-92
2024/04/16 03:27:05;;;;;;;14.10;13.15;;;;;;;;;;5354895;26;20000;-94
2024/04/16 03:29:31;;;;;;;17.80;16.52;;;;;;;;;;5374357;26;20441;-94
2024/04/16 03:31:57;;;;;;;18.90;17.58;;;;;;;;;;5389393;26;19999;-94
2024/04/16 03:34:23;;;;;;;21.23;19.88;;;;;;;;;;5389468;26;19995;-94
2024/04/16 03:36:50;;;;;;;19.17;18.00;;;;;;;;;;5389905;26;20027;-92
2024/04/16 03:39:16;;;;;;;18.88;17.50;;;;;;;;;;5390304;26;20008;-94
2024/04/16 03:41:43;;;;;;;23.67;22.30;;;;;;;;;;5374381;26;20011;-94
2024/04/16 03:44:09;;;;;;;22.67;21.10;;;;;;;;;;5389366;26;20007;-94
2024/04/16 03:46:35;;;;;;;21.08;19.88;;;;;;;;;;5389634;26;20015;-94
2024/04/16 03:49:01;;;;;;;16.55;15.25;;;;;;;;;;5389773;26;20002;-94
2024/04/16 03:51:28;;;;;;;10.77;9.85;;;;;;;;;;5420666;26;19999;-94
2024/04/16 03:53:54;;;;;;;16.67;15.48;;;;;;;;;;5388529;26;19999;-93
2024/04/16 03:56:20;;;;;;;14.38;13.38;;;;;;;;;;5389401;26;20007;-91
2024/04/16 04:01:51;;;;;;;9.35;8.65;;;;;;;;;;5278023;27;19998;-93
2024/04/16 04:04:17;;;;;;;8.52;7.90;;;;;;;;;;5242103;27;20021;-90
2024/04/16 04:06:43;;;;;;;6.57;6.07;;;;;;;;;;5280415;26;19999;-89
2024/04/16 04:09:09;;;;;;;9.10;8.52;;;;;;;;;;5353721;26;19999;-90
2024/04/16 04:11:35;;;;;;;8.75;6.43;;;;;;;;;;5372610;26;20022;-91
2024/04/16 04:14:05;;;;;;;6.30;5.32;;;;;;;;;;5379808;21;20008;-91
2024/04/16 04:19:38;;;;;;;7.03;6.25;;;;;;;;;;5366510;21;20079;-93
2024/04/16 04:22:04;;;;;;;6.55;5.90;;;;;;;;;;5347283;26;20449;-92
2024/04/16 04:24:30;;;;;;;7.68;6.55;;;;;;;;;;5347382;26;20004;-94
2024/04/16 04:26:56;;;;;;;6.00;5.53;;;;;;;;;;5347716;26;20070;-91
2024/04/16 04:29:22;;;;;;;5.72;5.20;;;;;;;;;;5347623;26;20074;-93
2024/04/16 04:31:49;;;;;;;7.97;6.97;;;;;;;;;;5347675;26;19997;-92
2024/04/16 04:34:15;;;;;;;7.22;6.72;;;;;;;;;;5347579;26;20001;-93
2024/04/16 04:36:41;;;;;;;6.85;6.35;;;;;;;;;;5347571;26;20008;-93
2024/04/16 04:39:07;;;;;;;7.18;6.50;;;;;;;;;;5346809;26;20505;-91
2024/04/16 04:41:33;;;;;;;5.47;5.07;;;;;;;;;;5347411;26;20067;-94
2024/04/16 04:44:00;;;;;;;10.13;9.38;;;;;;;;;;5347784;26;20430;-93
2024/04/16 04:46:32;;;;;;;10.27;9.57;;;;;;;;;;5346699;26;20615;-95
2024/04/16 04:48:58;;;;;;;9.80;9.00;;;;;;;;;;5349087;26;20001;-91
2024/04/16 04:51:24;;;;;;;12.07;11.18;;;;;;;;;;5348829;26;20019;-92
2024/04/16 04:53:51;;;;;;;9.23;8.65;;;;;;;;;;5347110;26;20016;-92
2024/04/16 04:56:20;;;;;;;7.63;7.10;;;;;;;;;;5347324;26;20346;-94
2024/04/16 04:58:46;;;;;;;7.00;6.50;;;;;;;;;;5347327;26;20120;-93
2024/04/16 05:01:12;;;;;;;5.93;5.43;;;;;;;;;;5347816;26;20456;-93
2024/04/16 05:03:38;;;;;;;5.57;4.65;;;;;;;;;;5354177;26;20004;-95
2024/04/16 05:06:05;;;;;;;9.05;8.30;;;;;;;;;;5366922;26;20001;-94
2024/04/16 05:08:31;;;;;;;5.82;4.88;;;;;;;;;;5357786;26;20001;-94
2024/04/16 05:10:57;;;;;;;7.30;6.57;;;;;;;;;;5347716;26;20469;-93
2024/04/16 05:13:24;;;;;;;6.25;5.70;;;;;;;;;;5347347;26;19997;-93
2024/04/16 05:15:50;;;;;;;6.40;5.53;;;;;;;;;;5347144;26;20046;-95
2024/04/16 05:18:16;;;;;;;2.25;1.90;;;;;;;;;;5346965;26;20001;-95
2024/04/16 05:20:49;;;;;;;4.45;4.15;;;;;;;;;;5347246;26;20008;-95
2024/04/16 05:23:19;;;;;;;;;;;;;;;;;;5349226;26;20015;-95
2024/04/16 05:25:55;;;;;;;2.00;1.85;;;;;;;;;;5347626;26;19926;-96
2024/04/16 05:28:22;;;;;;;4.70;4.40;;;;;;;;;;5318847;26;20011;-94
2024/04/16 05:30:48;;;;;;;4.00;3.45;;;;;;;;;;5350064;26;20008;-93
2024/04/16 05:33:14;;;;;;;5.63;4.93;;;;;;;;;;5346201;26;20008;-95
2024/04/16 05:35:40;;;;;;;4.72;3.97;;;;;;;;;;5346584;26;20012;-95
2024/04/16 05:38:06;;;;;;;7.47;6.75;;;;;;;;;;5346728;26;20457;-95
2024/04/16 05:40:33;;;;;;;5.38;4.53;;;;;;;;;;5347297;26;20070;-94
2024/04/16 05:42:59;;;;;;;4.97;3.42;;;;;;;;;;5346866;26;19997;-94
2024/04/16 05:45:25;;;;;;;3.45;3.20;;;;;;;;;;5347003;26;19993;-95
2024/04/16 05:47:52;;;;;;;5.10;4.30;;;;;;;;;;5346894;26;20418;-95
2024/04/16 05:50:18;;;;;;;5.80;5.35;;;;;;;;;;5346491;26;20008;-95
2024/04/16 05:52:44;;;;;;;4.25;3.95;;;;;;;;;;5346616;26;19993;-94
2024/04/16 05:55:11;;;;;;;7.32;6.78;;;;;;;;;;5346729;26;19996;-94
2024/04/16 05:57:37;;;;;;;3.22;2.92;;;;;;;;;;5346608;26;20462;-94
2024/04/16 06:00:04;;;;;;;5.10;4.70;;;;;;;;;;5346801;26;19997;-95
2024/04/16 06:02:31;;;;;;;4.00;3.70;;;;;;;;;;5346180;26;20071;-94
2024/04/16 06:04:57;;;;;;;2.90;2.70;;;;;;;;;;5346397;26;20004;-94
2024/04/16 06:07:23;;;;;;;4.90;3.90;;;;;;;;;;5346226;26;19997;-94
2024/04/16 06:09:49;;;;;;;4.43;3.97;;;;;;;;;;5345997;26;20008;-95
2024/04/16 06:12:16;;;;;;;4.75;4.43;;;;;;;;;;5346563;26;20004;-95
2024/04/16 06:14:42;;;;;;;6.57;5.97;;;;;;;;;;5346066;26;20000;-94
2024/04/16 06:17:08;;;;;;;6.38;5.25;;;;;;;;;;5347698;26;20033;-94
2024/04/16 06:19:35;;;;;;;9.68;3.92;;;;;;;;;;5349471;26;20021;-95
2024/04/16 06:22:04;;;;;;;5.60;4.55;;;;;;;;;;5349656;26;20099;-94
2024/04/16 06:24:30;;;;;;;7.97;4.43;;;;;;;;;;5349504;26;20070;-94
2024/04/16 06:26:59;;;;;;;5.60;5.10;;;;;;;;;;5348983;26;20005;-94
2024/04/16 06:35:17;;;;;;;4.05;3.63;;;;;;;;;;5350998;26;20334;-91
2024/04/16 06:37:43;;;;;;;6.10;5.43;;;;;;;;;;5350376;26;20083;-94
2024/04/16 06:40:09;;;;;;;4.75;4.35;;;;;;;;;;5350055;26;19997;-95
2024/04/16 06:42:36;;;;;;;7.18;6.10;;;;;;;;;;5349550;26;20036;-93
2024/04/16 06:45:11;;;;;;;6.60;6.10;;;;;;;;;;5321594;26;20004;-93
2024/04/16 06:47:41;;;;;;;8.18;7.45;;;;;;;;;;5503667;21;20010;-93
2024/04/16 06:50:10;;;;;;;6.65;6.18;;;;;;;;;;5324437;27;20346;-92
2024/04/16 06:52:36;;;;;;;8.27;7.57;;;;;;;;;;5314057;27;20071;-95
2024/04/16 06:55:02;;;;;;;5.03;4.63;;;;;;;;;;5313776;27;19998;-91
2024/04/16 06:57:28;;;;;;;4.68;4.38;;;;;;;;;;5313954;27;20345;-92
2024/04/16 06:59:55;;;;;;;6.22;5.72;;;;;;;;;;5314060;27;20009;-92
2024/04/16 07:02:21;;;;;;;5.05;4.63;;;;;;;;;;5314125;27;20403;-95
2024/04/16 07:04:48;;;;;;;7.75;6.18;;;;;;;;;;5312244;27;19993;-93
2024/04/16 07:07:14;;;;;;;5.78;4.75;;;;;;;;;;5315220;27;20000;-95
2024/04/16 07:09:52;;;;;;;5.00;4.50;;;;;;;;;;5314767;27;20004;-93
2024/04/16 07:12:22;;;;;;;6.20;5.70;;;;;;;;;;5314963;27;20008;-95
2024/04/16 07:14:51;;;;;;;7.55;5.28;;;;;;;;;;5314849;27;19998;-96
2024/04/16 07:17:20;;;;;;;4.80;4.47;;;;;;;;;;5314113;27;19998;-94
2024/04/16 07:19:46;;;;;;;4.75;4.35;;;;;;;;;;5314893;27;19998;-95
2024/04/16 07:22:12;;;;;;;5.65;5.10;;;;;;;;;;5315352;27;20028;-94
2024/04/16 07:24:39;;;;;;;4.57;4.20;;;;;;;;;;5302178;27;20038;-92
2024/04/16 07:27:05;;;;;;;7.65;6.00;;;;;;;;;;5279963;27;20320;-92
2024/04/16 07:32:33;;;;;;;4.95;4.60;;;;;;;;;;5281620;27;20050;-93
2024/04/16 07:35:38;;;;;;;5.45;4.97;;;;;;;;;;5279949;27;20013;-91
2024/04/16 07:38:04;;;;;;;5.35;2.55;;;;;;;;;;5314753;27;20009;-92
2024/04/16 07:40:32;;;;;;;5.32;4.85;;;;;;;;;;5284647;27;20009;-91
2024/04/16 07:42:58;;;;;;;6.97;6.30;;;;;;;;;;5277456;27;20016;-92
2024/04/16 07:45:24;;;;;;;5.15;4.75;;;;;;;;;;5280031;27;20013;-94
2024/04/16 07:47:50;;;;;;;4.30;3.22;;;;;;;;;;5251579;27;20010;-95
2024/04/16 07:50:20;;;;;;;4.60;4.20;;;;;;;;;;5251563;27;20075;-94
2024/04/16 07:52:52;;;;;;;8.00;7.38;;;;;;;;;;5251802;27;20012;-94
2024/04/16 07:55:24;;;;;;;4.20;3.88;;;;;;;;;;5251483;27;20021;-92
2024/04/16 07:57:50;;;;;;;7.60;6.85;;;;;;;;;;5281205;27;20002;-92
2024/04/16 08:00:28;;;;;;;6.65;5.35;;;;;;;;;;5280306;27;19998;-92
2024/04/16 08:02:57;;;;;;;7.90;5.57;;;;;;;;;;5284898;27;20029;-93
2024/04/16 08:05:23;;;;;;;5.90;5.45;;;;;;;;;;5285713;27;20041;-93
2024/04/16 08:07:55;;;;;;;6.25;5.80;;;;;;;;;;5285693;27;20010;-93
2024/04/16 08:10:21;;;;;;;5.65;5.20;;;;;;;;;;5314074;27;20002;-93
2024/04/16 08:12:48;;;;;;;4.40;4.07;;;;;;;;;;5313730;27;19998;-93
2024/04/16 08:15:21;;;;;;;7.13;6.55;;;;;;;;;;5315006;27;19997;-95
2024/04/16 08:17:50;;;;;;;;;;;;;;;;;;5313482;27;20072;-94
2024/04/16 08:20:16;;;;;;;7.03;5.43;;;;;;;;;;5280211;27;19974;-95
2024/04/16 08:22:43;;;;;;;7.68;7.00;;;;;;;;;;5294253;27;20342;-93
2024/04/16 08:25:12;;;;;;;7.90;6.82;;;;;;;;;;5294179;27;20006;-95
2024/04/16 08:27:50;;;;;;;5.55;5.03;;;;;;;;;;5279485;27;20006;-94
2024/04/16 08:30:17;;;;;;;11.35;10.50;;;;;;;;;;5315476;26;20002;-94
2024/04/16 08:32:46;;;;;;;5.43;5.03;;;;;;;;;;5440372;21;20064;-95
2024/04/16 08:35:26;;;;;;;6.50;3.03;;;;;;;;;;5347859;26;20004;-94
2024/04/16 08:37:55;;;;;;;3.88;3.10;;;;;;;;;;5347979;26;19997;-94
2024/04/16 08:40:24;;;;;;;6.53;5.90;;;;;;;;;;5347421;26;19997;-93
2024/04/16 08:42:52;;;;;;;2.83;1.63;;;;;;;;;;5347640;26;20007;-93
2024/04/16 08:45:22;;;;;;;5.97;5.47;;;;;;;;;;5348124;26;19996;-94
2024/04/16 08:47:49;;;;;;;7.68;6.35;;;;;;;;;;5348182;26;20008;-96
2024/04/16 08:50:16;;;;;;;11.45;8.88;;;;;;;;;;5338105;26;20000;-95
2024/04/16 08:52:48;;;;;;;8.43;7.07;;;;;;;;;;5319598;26;20013;-93
2024/04/16 08:55:19;;;;;;;6.17;4.97;;;;;;;;;;5318522;26;20005;-94
2024/04/16 08:57:51;;;;;;;6.53;5.93;;;;;;;;;;5318686;26;20231;-95
2024/04/16 09:00:21;;;;;;;3.38;3.08;;;;;;;;;;5318943;26;20327;-96
2024/04/16 09:02:47;;;;;;;5.60;5.10;;;;;;;;;;5318589;26;20008;-95
2024/04/16 09:08:17;;;;;;;4.63;4.20;;;;;;;;;;5349057;26;20342;-93
2024/04/16 09:10:44;;;;;;;5.50;4.97;;;;;;;;;;5318745;26;20012;-94
2024/04/16 09:13:13;;;;;;;5.68;5.13;;;;;;;;;;5318886;26;19997;-94
2024/04/16 09:15:40;;;;;;;6.95;6.43;;;;;;;;;;5318471;26;20043;-94
2024/04/16 09:18:07;;;;;;;7.53;6.78;;;;;;;;;;5318713;26;19997;-93
2024/04/16 09:20:34;;;;;;;6.13;4.65;;;;;;;;;;5318743;26;20001;-93
2024/04/16 09:23:01;;;;;;;8.10;7.50;;;;;;;;;;5318771;26;20008;-95
2024/04/16 09:25:28;;;;;;;7.20;6.47;;;;;;;;;;5318482;26;20037;-94
2024/04/16 09:27:59;;;;;;;5.80;5.40;;;;;;;;;;5333212;26;20473;-93
2024/04/16 09:30:46;;;;;;;5.60;5.15;;;;;;;;;;5320060;26;20403;-95
2024/04/16 09:33:12;;;;;;;7.78;5.90;;;;;;;;;;5317792;26;19997;-93
2024/04/16 09:35:42;;;;;;;7.47;6.97;;;;;;;;;;5332006;26;20005;-92
2024/04/16 09:38:08;;;;;;;5.78;5.18;;;;;;;;;;5346621;26;20012;-92
2024/04/16 09:40:35;;;;;;;7.68;6.55;;;;;;;;;;5348638;26;20001;-95
2024/04/16 09:43:02;;;;;;;10.15;9.23;;;;;;;;;;5347662;26;20001;-94
2024/04/16 09:45:29;;;;;;;10.27;9.57;;;;;;;;;;5347536;26;20001;-95
2024/04/16 09:48:08;;;;;;;10.13;9.43;;;;;;;;;;5347343;26;20000;-95
2024/04/16 09:50:38;;;;;;;7.55;6.78;;;;;;;;;;5331361;26;20067;-95
2024/04/16 09:53:08;;;;;;;11.43;10.63;;;;;;;;;;5349901;26;20012;-94
2024/04/16 09:55:39;;;;;;;8.23;7.47;;;;;;;;;;5350018;26;20001;-95
2024/04/16 09:58:05;;;;;;;9.63;8.65;;;;;;;;;;5350188;26;19997;-95
2024/04/16 10:00:34;;;;;;;6.68;6.05;;;;;;;;;;5350029;26;20008;-96
2024/04/16 10:03:11;;;;;;;12.43;11.55;;;;;;;;;;5333216;26;20438;-96
2024/04/16 10:05:37;;;;;;;7.47;6.88;;;;;;;;;;5322122;26;20001;-95
2024/04/16 10:08:03;;;;;;;7.82;7.30;;;;;;;;;;5322160;26;20012;-96
2024/04/16 10:10:45;;;;;;;11.52;10.70;;;;;;;;;;5321881;26;20051;-95
2024/04/16 10:13:12;;;;;;;11.07;10.18;;;;;;;;;;5357604;26;19997;-94
2024/04/16 10:15:50;;;;;;;12.98;12.07;;;;;;;;;;5338777;26;20417;-95
2024/04/16 10:18:35;;;;;;;11.98;11.18;;;;;;;;;;5320706;26;20008;-95
2024/04/16 10:21:02;;;;;;;9.25;8.60;;;;;;;;;;5321052;26;20016;-95
2024/04/16 10:23:34;;;;;;;10.57;9.80;;;;;;;;;;5319936;26;19993;-96
2024/04/16 10:26:00;;;;;;;12.05;11.15;;;;;;;;;;5321294;26;20016;-95
2024/04/16 10:28:35;;;;;;;9.75;9.05;;;;;;;;;;5321148;26;19997;-94
2024/04/16 10:31:05;;;;;;;13.57;12.65;;;;;;;;;;5320720;26;20015;-95
2024/04/16 10:33:42;;;;;;;12.55;11.57;;;;;;;;;;5320810;26;20029;-94
2024/04/16 10:36:08;;;;;;;12.25;11.32;;;;;;;;;;5321056;26;20004;-94
2024/04/16 10:38:39;;;;;;;8.52;7.93;;;;;;;;;;5320638;26;20465;-92
2024/04/16 10:41:05;;;;;;;10.88;10.05;;;;;;;;;;5320431;26;20076;-94
2024/04/16 10:43:38;;;;;;;6.45;5.90;;;;;;;;;;5320819;26;19997;-94
2024/04/16 10:46:06;;;;;;;10.98;10.18;;;;;;;;;;5320523;26;20005;-95
2024/04/16 10:48:32;;;;;;;9.98;9.23;;;;;;;;;;5315963;26;20435;-95
2024/04/16 10:51:01;;;;;;;11.77;10.77;;;;;;;;;;5316125;27;20017;-94
2024/04/16 10:53:28;;;;;;;11.40;10.45;;;;;;;;;;5315839;27;20002;-95
2024/04/16 10:55:54;;;;;;;11.30;10.50;;;;;;;;;;5315448;27;20056;-94
2024/04/16 10:58:22;;;;;;;15.18;14.15;;;;;;;;;;5318456;27;20005;-93
2024/04/16 11:00:53;;;;;;;13.85;12.95;;;;;;;;;;5321617;26;20021;-94
2024/04/16 11:03:19;;;;;;;13.82;12.93;;;;;;;;;;5320598;26;20005;-93
2024/04/16 11:05:50;;;;;;;15.48;14.48;;;;;;;;;;5288765;27;20022;-96
2024/04/16 11:08:19;;;;;;;20.20;18.95;;;;;;;;;;5299526;26;20004;-94
2024/04/16 11:10:49;;;;;;;20.85;19.63;;;;;;;;;;5321995;26;20012;-95
2024/04/16 11:13:22;;;;;;;23.67;22.17;;;;;;;;;;5321999;26;20004;-94
2024/04/16 11:15:48;;;;;;;15.52;14.60;;;;;;;;;;5322457;26;20001;-95
2024/04/16 11:18:21;;;;;;;20.83;19.50;;;;;;;;;;5321847;26;19996;-94
2024/04/16 11:20:48;;;;;;;13.27;12.43;;;;;;;;;;5320933;26;20001;-95
2024/04/16 11:23:14;;;;;;;15.60;14.55;;;;;;;;;;5315879;27;20012;-95
2024/04/16 11:25:46;;;;;;;25.17;23.60;;;;;;;;;;5315224;27;20436;-94
2024/04/16 11:28:30;;;;;;;16.80;15.60;;;;;;;;;;5315144;27;20001;-94
2024/04/16 11:31:01;;;;;;;19.95;18.45;;;;;;;;;;5312995;27;20012;-95
2024/04/16 11:33:28;;;;;;;27.90;26.27;;;;;;;;;;5302746;27;20039;-94
2024/04/16 11:35:56;;;;;;;15.65;14.65;;;;;;;;;;5301081;27;20037;-95
2024/04/16 11:38:23;;;;;;;27.30;25.55;;;;;;;;;;5295930;27;20002;-94
2024/04/16 11:40:49;;;;;;;22.70;21.30;;;;;;;;;;5287983;27;20009;-94
2024/04/16 11:43:15;;;;;;;18.88;17.73;;;;;;;;;;5287905;27;20006;-94
2024/04/16 11:45:42;;;;;;;20.23;18.85;;;;;;;;;;5287959;27;20013;-95
2024/04/16 11:48:12;;;;;;;19.35;18.10;;;;;;;;;;5288308;27;20001;-94
2024/04/16 11:50:39;;;;;;;24.88;23.42;;;;;;;;;;5287725;27;20393;-94
2024/04/16 11:53:05;;;;;;;25.08;23.45;;;;;;;;;;5290801;26;20002;-92
2024/04/16 11:55:32;;;;;;;24.10;22.60;;;;;;;;;;5307744;26;20009;-94
2024/04/16 11:57:59;;;;;;;24.48;22.98;;;;;;;;;;5302635;27;20016;-93
2024/04/16 12:00:26;;;;;;;24.33;22.90;;;;;;;;;;5286956;27;20462;-94
2024/04/16 12:02:53;;;;;;;25.90;24.15;;;;;;;;;;5316813;27;20065;-93
2024/04/16 12:05:20;;;;;;;24.42;22.95;;;;;;;;;;5286745;27;20001;-93
2024/04/16 12:07:47;;;;;;;25.30;23.75;;;;;;;;;;5281467;27;20003;-93
2024/04/16 12:10:15;;;;;;;27.13;25.42;;;;;;;;;;5282612;27;20078;-93
2024/04/16 12:12:41;;;;;;;31.88;30.00;;;;;;;;;;5278627;27;19994;-93
2024/04/16 12:15:08;;;;;;;30.98;29.17;;;;;;;;;;5280324;27;19998;-95
2024/04/16 12:17:35;;;;;;;27.77;26.02;;;;;;;;;;5286806;27;20002;-94
2024/04/16 12:20:04;;;;;;;36.45;34.28;;;;;;;;;;5286804;27;20008;-95
2024/04/16 12:22:30;;;;;;;35.97;33.58;;;;;;;;;;5287009;27;20439;-93
2024/04/16 12:25:00;;;;;;;34.92;32.55;;;;;;;;;;5285775;27;20076;-94
2024/04/16 12:27:44;;;;;;;33.70;31.55;;;;;;;;;;5287106;27;19997;-94
2024/04/16 12:30:12;;;;;;;32.88;30.48;;;;;;;;;;5287081;27;20013;-94
2024/04/16 12:32:41;;;;;;;32.53;30.40;;;;;;;;;;5341867;26;20000;-94
2024/04/16 12:35:07;;;;;;;28.15;26.35;;;;;;;;;;5355557;26;19996;-92
2024/04/16 12:37:38;;;;;;;28.38;26.73;;;;;;;;;;5378444;26;20005;-93
2024/04/16 12:40:06;;;;;;;24.98;23.20;;;;;;;;;;5367053;26;20000;-94
2024/04/16 12:42:32;;;;;;;30.38;28.50;;;;;;;;;;5353935;26;20011;-93
2024/04/16 12:44:58;;;;;;;28.80;27.10;;;;;;;;;;5354034;26;20007;-94
2024/04/16 12:47:26;;;;;;;33.42;31.40;;;;;;;;;;5354320;26;20000;-94
2024/04/16 12:49:56;;;;;;;33.55;31.55;;;;;;;;;;5349136;26;20466;-93
2024/04/16 12:52:25;;;;;;;33.80;31.77;;;;;;;;;;5349300;26;20307;-93
2024/04/16 12:54:51;;;;;;;30.45;28.63;;;;;;;;;;5349456;26;20013;-94
2024/04/16 12:57:21;;;;;;;37.13;34.90;;;;;;;;;;5354424;26;19992;-93
2024/04/16 12:59:53;;;;;;;35.10;33.08;;;;;;;;;;5326116;26;20008;-94
2024/04/16 13:02:20;;;;;;;44.07;41.43;;;;;;;;;;5353800;26;20035;-93
2024/04/16 13:04:48;;;;;;;39.28;36.95;;;;;;;;;;5354033;26;20000;-93
2024/04/16 13:07:14;;;;;;;45.45;42.47;;;;;;;;;;5354356;26;20000;-93
2024/04/16 13:09:46;;;;;;;45.53;42.90;;;;;;;;;;5354966;26;19996;-94
2024/04/16 13:12:12;;;;;;;40.45;38.05;;;;;;;;;;5351315;26;20016;-93
2024/04/16 13:15:00;;;;;;;37.67;35.47;;;;;;;;;;5354335;26;20341;-95
2024/04/16 13:17:29;;;;;;;41.58;39.00;;;;;;;;;;5342163;26;20008;-94
2024/04/16 13:19:55;;;;;;;42.58;40.17;;;;;;;;;;5338160;26;20531;-94
2024/04/16 13:22:26;;;;;;;43.15;40.50;;;;;;;;;;5341193;26;20050;-93
2024/04/16 13:24:52;;;;;;;42.63;39.70;;;;;;;;;;5313970;26;20373;-93
2024/04/16 13:27:18;;;;;;;34.33;31.90;;;;;;;;;;5343005;26;20460;-93
2024/04/16 13:29:53;;;;;;;35.67;33.33;;;;;;;;;;5337181;26;20013;-93
2024/04/16 13:32:23;;;;;;;32.92;30.85;;;;;;;;;;5322704;26;20342;-94
2024/04/16 13:34:55;;;;;;;35.72;33.55;;;;;;;;;;5353953;26;20081;-94
2024/04/16 13:37:42;;;;;;;39.13;36.75;;;;;;;;;;5375059;26;19988;-94
2024/04/16 13:40:11;;;;;;;34.53;32.38;;;;;;;;;;5380057;21;20019;-93
2024/04/16 13:42:49;;;;;;;37.53;35.28;;;;;;;;;;5317509;27;20018;-96
2024/04/16 13:45:16;;;;;;;38.63;36.38;;;;;;;;;;5314007;27;20013;-93
2024/04/16 13:47:42;;;;;;;38.60;36.17;;;;;;;;;;5323894;26;20015;-94
2024/04/16 13:50:12;;;;;;;24.88;23.20;;;;;;;;;;5348985;26;19997;-94
2024/04/16 13:53:22;;;;;;;36.35;34.00;;;;;;;;;;5348167;26;20001;-96
2024/04/16 13:55:51;;;;;;;38.78;36.10;;;;;;;;;;5335767;26;19997;-94
2024/04/16 13:58:20;;;;;;;40.55;37.90;;;;;;;;;;5351864;26;20025;-92
2024/04/16 14:00:47;;;;;;;37.85;35.53;;;;;;;;;;5328421;26;20343;-92
2024/04/16 14:03:16;;;;;;;27.80;25.73;;;;;;;;;;5312732;27;20002;-93
2024/04/16 14:05:42;;;;;;;39.15;36.70;;;;;;;;;;5312919;26;20075;-94
2024/04/16 14:08:08;;;;;;;26.15;24.40;;;;;;;;;;5333625;26;20000;-93
2024/04/16 14:10:37;;;;;;;40.03;36.95;;;;;;;;;;5353288;26;19994;-94
2024/04/16 14:13:03;;;;;;;32.83;30.55;;;;;;;;;;5354116;26;20013;-94
2024/04/16 14:15:39;;;;;;;36.70;33.55;;;;;;;;;;5350375;26;20453;-93
2024/04/16 14:18:05;;;;;;;31.15;28.90;;;;;;;;;;5347445;26;20001;-93
2024/04/16 14:20:31;;;;;;;38.72;35.85;;;;;;;;;;5334175;26;20019;-94
2024/04/16 14:22:57;;;;;;;23.52;21.67;;;;;;;;;;5312054;27;20026;-90
2024/04/16 14:25:23;;;;;;;29.85;27.92;;;;;;;;;;5311876;27;19997;-94
2024/04/16 14:27:50;;;;;;;32.20;30.17;;;;;;;;;;5311855;27;20001;-92
2024/04/16 14:30:28;;;;;;;33.50;31.30;;;;;;;;;;5293464;27;19997;-92
2024/04/16 14:32:57;;;;;;;28.33;26.20;;;;;;;;;;5326421;26;20001;-94
2024/04/16 14:35:26;;;;;;;33.05;30.75;;;;;;;;;;5346208;26;20001;-94
2024/04/16 14:37:53;;;;;;;27.55;25.38;;;;;;;;;;5320144;26;20002;-94
2024/04/16 14:40:22;;;;;;;27.98;26.10;;;;;;;;;;5314750;27;20110;-94
2024/04/16 14:42:51;;;;;;;31.05;29.13;;;;;;;;;;5315067;27;20002;-92
2024/04/16 14:45:17;;;;;;;24.85;23.10;;;;;;;;;;5346271;26;20450;-94
2024/04/16 14:47:50;;;;;;;28.13;26.27;;;;;;;;;;5349460;26;20334;-94
2024/04/16 14:50:19;;;;;;;25.45;23.70;;;;;;;;;;5349677;26;20004;-93
2024/04/16 14:52:52;;;;;;;25.35;23.73;;;;;;;;;;5349872;26;20009;-92
2024/04/16 14:55:21;;;;;;;24.80;22.88;;;;;;;;;;5322800;26;20005;-93
2024/04/16 14:57:50;;;;;;;22.00;20.42;;;;;;;;;;5298656;27;19998;-92